Ohshima Kazumaru — JD2908 — position and weather

sailwx.info

Track history (hours):
 
Tides and Currents Weather Stations Pressure Air Temp Water Temp Dewpoint Dewpoint Depression Visibility Wind Speed Wind Dir Waves Ship Positions

Ohshima Kazumaru

Last reported at 2015-Aug-03 02:32 UTC. Time now 2015-Aug-03 02:34 UTC.
Position N 34°56' E 139°27'.

Length 69 m; draft 4 m.

Type: Cargo ship. MMSI: 431000925.

Date/timePositionNaut miles runAvg speedWind from/ knotsBaromVisibWave heightAir tempDewpointWater temp
2015-Aug-03 02:32N 34°56' E 139°27'  
2015-Jul-29 12:33N 35°06' E 139°39'1211.8
2015-Jul-29 11:33N 35°16' E 139°46'1111.2
2015-Jul-29 10:33N 35°28' E 139°46'4 4.1
2015-Jul-29 09:33N 35°32' E 139°47'0 0.0
2015-Jul-29 08:33N 35°32' E 139°47'0 0.0
2015-Jul-29 07:33N 35°32' E 139°47'0 0.0
2015-Jul-29 06:33N 35°32' E 139°47'0 0.0
2015-Jul-29 05:33N 35°32' E 139°47'0 0.0
2015-Jul-29 04:33N 35°32' E 139°47'0 0.0
2015-Jul-29 03:33N 35°32' E 139°47'0 0.0
2015-Jul-29 02:33N 35°32' E 139°47'0 0.0
2015-Jul-29 01:33N 35°32' E 139°47'0 0.0
2015-Jul-29 00:33N 35°32' E 139°47'0 0.0
2015-Jul-28 23:33N 35°32' E 139°47'0 0.0
2015-Jul-28 22:33N 35°32' E 139°47'0 0.0
2015-Jul-28 21:33N 35°32' E 139°47'0 0.0
2015-Jul-28 20:33N 35°32' E 139°47'1 1.1
2015-Jul-28 19:34N 35°31' E 139°48'0 0.4
2015-Jul-28 18:34N 35°31' E 139°49'0 0.0
2015-Jul-28 17:33N 35°31' E 139°49'0 0.0
2015-Jul-28 16:33N 35°31' E 139°49'6 6.0
2015-Jul-28 15:33N 35°25' E 139°47'1211.6
2015-Jul-28 14:33N 35°14' E 139°47'1111.4
2015-Jul-28 13:33N 35°03' E 139°41'  
2015-Jul-24 14:09N 34°58' E 139°26'610.7
2015-Jul-24 13:33N 35°02' E 139°32'1212.0
2015-Jul-24 12:33N 35°08' E 139°44'1111.1
2015-Jul-24 11:34N 35°19' E 139°43'1211.6
2015-Jul-24 10:33N 35°30' E 139°49'2 2.0
2015-Jul-24 09:33N 35°32' E 139°47'0 0.0
2015-Jul-24 08:33N 35°32' E 139°47'0 0.0
2015-Jul-24 07:33N 35°32' E 139°47'0 0.0
2015-Jul-24 06:34N 35°32' E 139°47'0 0.0
2015-Jul-24 05:33N 35°32' E 139°47'0 0.0
2015-Jul-24 04:33N 35°32' E 139°47'0 0.0
2015-Jul-24 03:33N 35°32' E 139°47'0 0.0
2015-Jul-24 02:33N 35°32' E 139°47'  
Track history (hours):
 
Tides and Currents Weather Stations Pressure Air Temp Water Temp Dewpoint Dewpoint Depression Visibility Wind Speed Wind Dir Waves Ship Positions

Ohshima Kazumaru

Last reported at 2015-Aug-03 02:32 UTC. Time now 2015-Aug-03 02:34 UTC.
Position N 34°56' E 139°27'.

Length 69 m; draft 4 m.

Type: Cargo ship. MMSI: 431000925.

Date/timePositionNaut miles runAvg speedWind from/ knotsBaromVisibWave heightAir tempDewpointWater temp
2015-Aug-03 02:32N 34°56' E 139°27'  
2015-Jul-29 12:33N 35°06' E 139°39'1211.8
2015-Jul-29 11:33N 35°16' E 139°46'1111.2
2015-Jul-29 10:33N 35°28' E 139°46'4 4.1
2015-Jul-29 09:33N 35°32' E 139°47'0 0.0
2015-Jul-29 08:33N 35°32' E 139°47'0 0.0
2015-Jul-29 07:33N 35°32' E 139°47'0 0.0
2015-Jul-29 06:33N 35°32' E 139°47'0 0.0
2015-Jul-29 05:33N 35°32' E 139°47'0 0.0
2015-Jul-29 04:33N 35°32' E 139°47'0 0.0
2015-Jul-29 03:33N 35°32' E 139°47'0 0.0
2015-Jul-29 02:33N 35°32' E 139°47'0 0.0
2015-Jul-29 01:33N 35°32' E 139°47'0 0.0
2015-Jul-29 00:33N 35°32' E 139°47'0 0.0
2015-Jul-28 23:33N 35°32' E 139°47'0 0.0
2015-Jul-28 22:33N 35°32' E 139°47'0 0.0
2015-Jul-28 21:33N 35°32' E 139°47'0 0.0
2015-Jul-28 20:33N 35°32' E 139°47'1 1.1
2015-Jul-28 19:34N 35°31' E 139°48'0 0.4
2015-Jul-28 18:34N 35°31' E 139°49'0 0.0
2015-Jul-28 17:33N 35°31' E 139°49'0 0.0
2015-Jul-28 16:33N 35°31' E 139°49'6 6.0
2015-Jul-28 15:33N 35°25' E 139°47'1211.6
2015-Jul-28 14:33N 35°14' E 139°47'1111.4
2015-Jul-28 13:33N 35°03' E 139°41'  
2015-Jul-24 14:09N 34°58' E 139°26'610.7
2015-Jul-24 13:33N 35°02' E 139°32'1212.0
2015-Jul-24 12:33N 35°08' E 139°44'1111.1
2015-Jul-24 11:34N 35°19' E 139°43'1211.6
2015-Jul-24 10:33N 35°30' E 139°49'2 2.0
2015-Jul-24 09:33N 35°32' E 139°47'0 0.0
2015-Jul-24 08:33N 35°32' E 139°47'0 0.0
2015-Jul-24 07:33N 35°32' E 139°47'0 0.0
2015-Jul-24 06:34N 35°32' E 139°47'0 0.0
2015-Jul-24 05:33N 35°32' E 139°47'0 0.0
2015-Jul-24 04:33N 35°32' E 139°47'0 0.0
2015-Jul-24 03:33N 35°32' E 139°47'0 0.0
2015-Jul-24 02:33N 35°32' E 139°47'  

Dump ship's entire track history